Time;durP1;ratioP1;P1;durP2;ratioP2;P2;SDS_P1;SDS_P2;PMS_P1;PMS_P2;Temp;Humidity;BMP_temperature;BMP_pressure;BME280_temperature;BME280_humidity;BME280_pressure;Samples;Min_cycle;Max_cycle;Signal;HPM_P1;HPM_P2
2022/02/23 00:00:09;;;;;;;31.03;5.83;;;;;;;-145.14;100.00;70583.66;4987480;28;20448;-72
2022/02/23 00:02:35;;;;;;;28.03;6.30;;;;;;;-145.14;100.00;70583.66;4988556;28;20189;-72
2022/02/23 00:05:00;;;;;;;33.63;6.27;;;;;;;-145.14;100.00;70583.66;4987724;28;20475;-72
2022/02/23 00:07:26;;;;;;;26.97;5.83;;;;;;;-145.14;100.00;70583.66;4983771;28;20729;-72
2022/02/23 00:09:52;;;;;;;23.07;6.17;;;;;;;-145.14;100.00;70583.66;4987358;28;20186;-71
2022/02/23 00:12:18;;;;;;;39.03;6.57;;;;;;;-145.14;100.00;70583.66;4997725;28;20177;-72
2022/02/23 00:14:43;;;;;;;28.50;4.97;;;;;;;-145.14;100.00;70583.66;4987069;28;20467;-72
2022/02/23 00:17:09;;;;;;;28.93;5.90;;;;;;;-145.14;100.00;70583.66;4985981;28;20570;-72
2022/02/23 00:19:34;;;;;;;25.97;5.60;;;;;;;-145.14;100.00;70583.66;4988042;28;23384;-72
2022/02/23 00:22:00;;;;;;;30.10;4.97;;;;;;;-145.14;100.00;70583.66;4989145;28;20607;-72
2022/02/23 00:24:25;;;;;;;26.33;5.00;;;;;;;-145.14;100.00;70583.66;4987936;28;20205;-73
2022/02/23 00:26:51;;;;;;;34.37;5.87;;;;;;;-145.14;100.00;70583.66;4988093;28;20200;-72
2022/02/23 00:29:16;;;;;;;27.90;5.07;;;;;;;-145.14;100.00;70583.66;4992571;28;20583;-72
2022/02/23 00:31:42;;;;;;;28.07;5.80;;;;;;;-145.14;100.00;70583.66;4991942;28;20196;-72
2022/02/23 00:34:08;;;;;;;33.20;6.27;;;;;;;-145.14;100.00;70583.66;4987093;28;20225;-72
2022/02/23 00:36:33;;;;;;;36.37;7.07;;;;;;;-145.14;100.00;70583.66;4986156;28;20662;-72
2022/02/23 00:38:59;;;;;;;40.83;6.70;;;;;;;-145.14;100.00;70583.66;4990797;28;20180;-72
2022/02/23 00:41:25;;;;;;;24.27;5.60;;;;;;;-145.14;100.00;70583.66;4991357;28;20272;-73
2022/02/23 00:43:50;;;;;;;27.30;5.93;;;;;;;-145.14;100.00;70583.66;4984961;28;20672;-72
2022/02/23 00:46:15;;;;;;;38.20;6.17;;;;;;;-145.14;100.00;70583.66;4987348;28;20752;-72
2022/02/23 00:48:41;;;;;;;25.30;6.17;;;;;;;-145.14;100.00;70583.66;4986202;28;20279;-72
2022/02/23 00:51:06;;;;;;;27.83;5.30;;;;;;;-145.14;100.00;70583.66;4986944;28;20205;-72
2022/02/23 00:53:32;;;;;;;33.17;5.33;;;;;;;-145.14;100.00;70583.66;4981194;28;20714;-72
2022/02/23 00:55:57;;;;;;;37.07;6.40;;;;;;;-145.14;100.00;70583.66;4987479;28;20200;-72
2022/02/23 00:58:23;;;;;;;33.07;6.07;;;;;;;-145.14;100.00;70583.66;4988952;28;20185;-72
2022/02/23 01:00:48;;;;;;;26.53;5.47;;;;;;;-145.14;100.00;70583.66;4990701;28;20220;-72
2022/02/23 01:03:14;;;;;;;29.60;5.10;;;;;;;-145.14;100.00;70583.66;4985428;28;20189;-71
2022/02/23 01:05:40;;;;;;;34.40;5.43;;;;;;;-145.14;100.00;70583.66;4991949;28;20205;-72
2022/02/23 01:08:05;;;;;;;29.13;5.73;;;;;;;-145.14;100.00;70583.66;4991035;28;20205;-72
2022/02/23 01:10:31;;;;;;;22.73;5.37;;;;;;;-145.14;100.00;70583.66;4985191;28;21035;-72
2022/02/23 01:12:57;;;;;;;26.57;5.70;;;;;;;-145.14;100.00;70583.66;4992348;28;20263;-72
2022/02/23 01:15:23;;;;;;;24.27;5.20;;;;;;;-145.14;100.00;70583.66;4985792;28;20232;-71
2022/02/23 01:17:49;;;;;;;26.73;5.97;;;;;;;-145.14;100.00;70583.66;4988562;28;20508;-71
2022/02/23 01:20:15;;;;;;;28.27;5.90;;;;;;;-145.14;100.00;70583.66;4987817;28;20858;-71
2022/02/23 01:22:41;;;;;;;30.43;5.73;;;;;;;-145.14;100.00;70583.66;4985447;28;20200;-72
2022/02/23 01:25:07;;;;;;;23.20;4.73;;;;;;;-145.14;100.00;70583.66;4992890;28;20995;-72
2022/02/23 01:27:33;;;;;;;22.03;4.90;;;;;;;-145.14;100.00;70583.66;4987161;28;20464;-72
2022/02/23 01:29:58;;;;;;;44.03;6.77;;;;;;;-145.14;100.00;70583.66;4988279;28;20444;-72
2022/02/23 01:32:27;;;;;;;32.10;5.50;;;;;;;-145.14;100.00;70583.66;4985829;28;20189;-72
2022/02/23 01:34:53;;;;;;;32.50;6.17;;;;;;;-145.14;100.00;70583.66;4986581;28;20703;-72
2022/02/23 01:37:18;;;;;;;26.13;5.80;;;;;;;-145.14;100.00;70583.66;4984562;28;20452;-72
2022/02/23 01:39:44;;;;;;;32.70;5.63;;;;;;;-145.14;100.00;70583.66;4986506;28;20451;-72
2022/02/23 01:42:11;;;;;;;28.70;5.00;;;;;;;-145.14;100.00;70583.66;4987270;28;20583;-73
2022/02/23 01:44:37;;;;;;;20.93;4.47;;;;;;;-145.14;100.00;70583.66;4983724;28;20217;-72
2022/02/23 01:47:02;;;;;;;24.40;4.33;;;;;;;-145.14;100.00;70583.66;4982047;28;20448;-72
2022/02/23 01:49:29;;;;;;;28.23;4.93;;;;;;;-145.14;100.00;70583.66;4990068;28;20478;-72
2022/02/23 01:51:54;;;;;;;29.93;5.17;;;;;;;-145.14;100.00;70583.66;4995725;28;20177;-72
2022/02/23 01:54:20;;;;;;;30.97;5.10;;;;;;;-145.14;100.00;70583.66;4995279;28;20835;-72
2022/02/23 01:56:45;;;;;;;33.80;6.00;;;;;;;-145.14;100.00;70583.66;4991185;28;20192;-72
2022/02/23 01:59:11;;;;;;;25.13;5.27;;;;;;;-145.14;100.00;70583.66;4989357;28;20193;-72
2022/02/23 02:01:36;;;;;;;29.13;5.80;;;;;;;-145.14;100.00;70583.66;4988028;28;20580;-72
2022/02/23 02:04:01;;;;;;;26.20;5.13;;;;;;;-145.14;100.00;70583.66;4993131;28;20595;-72
2022/02/23 02:06:27;;;;;;;36.00;5.20;;;;;;;-145.14;100.00;70583.66;4987637;28;20284;-72
2022/02/23 02:08:52;;;;;;;23.17;4.63;;;;;;;-145.14;100.00;70583.66;4996409;28;20210;-71
2022/02/23 02:11:18;;;;;;;20.63;4.87;;;;;;;-145.14;100.00;70583.66;4992974;28;20189;-71
2022/02/23 02:13:43;;;;;;;32.90;6.60;;;;;;;-145.14;100.00;70583.66;4987585;28;20697;-71
2022/02/23 02:16:09;;;;;;;29.00;5.63;;;;;;;-145.14;100.00;70583.66;4989645;28;20288;-72
2022/02/23 02:18:34;;;;;;;31.43;5.10;;;;;;;-145.14;100.00;70583.66;4989848;28;20189;-72
2022/02/23 02:21:00;;;;;;;30.90;4.80;;;;;;;-145.14;100.00;70583.66;4994122;28;20208;-72
2022/02/23 02:23:25;;;;;;;28.40;5.77;;;;;;;-145.14;100.00;70583.66;4987092;28;20221;-72
2022/02/23 02:25:51;;;;;;;31.23;5.20;;;;;;;-145.14;100.00;70583.66;4993272;28;20225;-71
2022/02/23 02:28:16;;;;;;;23.17;5.10;;;;;;;-145.14;100.00;70583.66;4989109;28;20645;-71
2022/02/23 02:30:42;;;;;;;21.60;4.93;;;;;;;-145.14;100.00;70583.66;4992729;28;20189;-71
2022/02/23 02:33:07;;;;;;;22.43;4.77;;;;;;;-145.14;100.00;70583.66;4989497;28;20196;-71
2022/02/23 02:35:36;;;;;;;21.63;4.60;;;;;;;-145.14;100.00;70583.66;5010214;23;20237;-71
2022/02/23 02:38:03;;;;;;;26.83;4.63;;;;;;;-145.14;100.00;70583.66;4992725;28;20181;-71
2022/02/23 02:40:29;;;;;;;27.10;5.03;;;;;;;-145.14;100.00;70583.66;4998543;28;20451;-71
2022/02/23 02:42:55;;;;;;;28.73;6.60;;;;;;;-145.14;100.00;70583.66;4994953;28;20941;-71
2022/02/23 02:45:21;;;;;;;25.90;5.60;;;;;;;-145.14;100.00;70583.66;4995874;28;20467;-71
2022/02/23 02:47:47;;;;;;;22.53;5.00;;;;;;;-145.14;100.00;70583.66;4988769;28;20205;-71
2022/02/23 02:50:12;;;;;;;32.80;4.57;;;;;;;-145.14;100.00;70583.66;4995066;28;20817;-71
2022/02/23 02:52:37;;;;;;;37.70;6.67;;;;;;;-145.14;100.00;70583.66;4991903;28;20283;-71
2022/02/23 02:55:03;;;;;;;20.63;5.13;;;;;;;-145.14;100.00;70583.66;4999577;28;20665;-71
2022/02/23 02:57:29;;;;;;;35.80;5.27;;;;;;;-145.14;100.00;70583.66;4996987;28;20181;-71
2022/02/23 02:59:54;;;;;;;30.90;5.50;;;;;;;-145.14;100.00;70583.66;4998147;28;20448;-71
2022/02/23 03:02:20;;;;;;;30.47;6.17;;;;;;;-145.14;100.00;70583.66;4995529;28;20757;-71
2022/02/23 03:04:45;;;;;;;27.13;5.17;;;;;;;-145.14;100.00;70583.66;4997523;28;20213;-71
2022/02/23 03:07:11;;;;;;;24.07;4.70;;;;;;;-145.14;100.00;70583.66;4995895;28;20194;-71
2022/02/23 03:09:36;;;;;;;29.40;4.80;;;;;;;-145.14;100.00;70583.66;4994709;28;20212;-71
2022/02/23 03:12:02;;;;;;;18.03;4.60;;;;;;;-145.14;100.00;70583.66;4996575;28;20558;-71
2022/02/23 03:14:27;;;;;;;21.27;4.97;;;;;;;-145.14;100.00;70583.66;4995199;28;20208;-71
2022/02/23 03:16:52;;;;;;;29.57;5.73;;;;;;;-145.14;100.00;70583.66;4992601;28;20181;-71
2022/02/23 03:19:18;;;;;;;30.47;4.80;;;;;;;-145.14;100.00;70583.66;4997407;28;20200;-71
2022/02/23 03:21:43;;;;;;;28.87;5.10;;;;;;;-145.14;100.00;70583.66;4999445;28;20209;-71
2022/02/23 03:24:09;;;;;;;28.43;4.77;;;;;;;-145.14;100.00;70583.66;4993720;28;20304;-71
2022/02/23 03:26:34;;;;;;;23.13;5.93;;;;;;;-145.14;100.00;70583.66;4997474;28;20246;-71
2022/02/23 03:29:00;;;;;;;18.43;4.30;;;;;;;-145.14;100.00;70583.66;4997873;28;20209;-71
2022/02/23 03:31:25;;;;;;;24.40;4.73;;;;;;;-145.14;100.00;70583.66;4996260;28;21052;-70
2022/02/23 03:33:50;;;;;;;29.57;4.80;;;;;;;-145.14;100.00;70583.66;4994316;28;20606;-71
2022/02/23 03:36:17;;;;;;;25.43;5.30;;;;;;;-145.14;100.00;70583.66;4992869;28;20218;-71
2022/02/23 03:38:44;;;;;;;22.63;4.20;;;;;;;-145.14;100.00;70583.66;5001576;28;20227;-71
2022/02/23 03:41:11;;;;;;;23.07;4.87;;;;;;;-145.14;100.00;70583.66;4999424;28;20444;-71
2022/02/23 03:43:37;;;;;;;19.27;4.73;;;;;;;-145.14;100.00;70583.66;4998245;28;20460;-71
2022/02/23 03:46:03;;;;;;;24.90;4.70;;;;;;;-145.14;100.00;70583.66;4992888;28;20444;-71
2022/02/23 03:48:28;;;;;;;34.00;5.33;;;;;;;-145.14;100.00;70583.66;4995913;28;20470;-71
2022/02/23 03:50:53;;;;;;;21.60;4.30;;;;;;;-145.14;100.00;70583.66;4996122;28;20645;-71
2022/02/23 03:53:20;;;;;;;22.97;4.50;;;;;;;-145.14;100.00;70583.66;4981852;28;20193;-71
2022/02/23 03:55:45;;;;;;;29.80;4.90;;;;;;;-145.14;100.00;70583.66;5000066;28;20280;-70
2022/02/23 03:58:11;;;;;;;20.33;4.57;;;;;;;-145.14;100.00;70583.66;4993197;28;20626;-71
2022/02/23 04:00:36;;;;;;;19.97;3.63;;;;;;;-145.14;100.00;70583.66;4986286;28;20648;-71
2022/02/23 04:03:02;;;;;;;21.70;4.20;;;;;;;-145.14;100.00;70583.66;4988947;28;20189;-71
2022/02/23 04:05:28;;;;;;;18.67;4.33;;;;;;;-145.14;100.00;70583.66;4993186;28;20208;-71
2022/02/23 04:07:54;;;;;;;24.30;4.97;;;;;;;-145.14;100.00;70583.66;4993640;28;20879;-71
2022/02/23 04:10:20;;;;;;;20.07;3.83;;;;;;;-145.14;100.00;70583.66;4993544;28;20444;-71
2022/02/23 04:12:47;;;;;;;25.93;4.87;;;;;;;-145.14;100.00;70583.66;4998922;28;20181;-71
2022/02/23 04:15:13;;;;;;;22.90;4.90;;;;;;;-145.14;100.00;70583.66;4993795;28;20501;-71
2022/02/23 04:17:39;;;;;;;20.90;4.30;;;;;;;-145.14;100.00;70583.66;4993438;28;20467;-71
2022/02/23 04:20:07;;;;;;;27.37;4.60;;;;;;;-145.14;100.00;70583.66;4993044;28;20444;-71
2022/02/23 04:22:33;;;;;;;17.93;3.90;;;;;;;-145.14;100.00;70583.66;4995412;28;20189;-71
2022/02/23 04:24:59;;;;;;;26.27;5.43;;;;;;;-145.14;100.00;70583.66;4994205;28;20466;-71
2022/02/23 04:27:24;;;;;;;22.17;5.37;;;;;;;-145.14;100.00;70583.66;4996902;28;20218;-71
2022/02/23 04:29:50;;;;;;;23.27;5.30;;;;;;;-145.14;100.00;70583.66;4991920;28;20539;-70
2022/02/23 04:32:15;;;;;;;29.63;4.40;;;;;;;-145.14;100.00;70583.66;4993792;28;20189;-71
2022/02/23 04:34:41;;;;;;;19.93;4.80;;;;;;;-145.14;100.00;70583.66;4992800;28;20213;-71
2022/02/23 04:37:07;;;;;;;25.07;5.07;;;;;;;-145.14;100.00;70583.66;4993875;28;20704;-71
2022/02/23 04:39:33;;;;;;;27.90;4.63;;;;;;;-145.14;100.00;70583.66;4995456;28;20181;-71
2022/02/23 04:41:58;;;;;;;27.23;4.80;;;;;;;-145.14;100.00;70583.66;5000606;28;20403;-71
2022/02/23 04:44:23;;;;;;;29.77;4.50;;;;;;;-145.14;100.00;70583.66;4998956;28;20459;-71
2022/02/23 04:46:49;;;;;;;20.67;5.63;;;;;;;-145.14;100.00;70583.66;5000092;28;20189;-70
2022/02/23 04:49:14;;;;;;;32.33;5.30;;;;;;;-145.14;100.00;70583.66;5003952;28;20207;-71
2022/02/23 04:51:40;;;;;;;23.53;4.77;;;;;;;-145.14;100.00;70583.66;5005903;28;20284;-70
2022/02/23 04:54:05;;;;;;;34.23;7.47;;;;;;;-145.14;100.00;70583.66;5000891;28;20581;-71
2022/02/23 04:56:31;;;;;;;27.33;4.67;;;;;;;-145.14;100.00;70583.66;4994094;28;20185;-71
2022/02/23 04:58:56;;;;;;;31.10;5.40;;;;;;;-145.14;100.00;70583.66;4994805;28;20191;-71
2022/02/23 05:01:22;;;;;;;29.37;4.50;;;;;;;-145.14;100.00;70583.66;4998074;28;20191;-71
2022/02/23 05:03:47;;;;;;;29.43;5.87;;;;;;;-145.14;100.00;70583.66;4994375;28;20275;-71
2022/02/23 05:06:13;;;;;;;17.13;4.90;;;;;;;-145.14;100.00;70583.66;4997977;28;20185;-71
2022/02/23 05:08:38;;;;;;;23.97;4.87;;;;;;;-145.14;100.00;70583.66;4997087;28;20208;-70
2022/02/23 05:11:04;;;;;;;34.33;5.40;;;;;;;-145.14;100.00;70583.66;4996870;28;20192;-71
2022/02/23 05:13:30;;;;;;;21.30;4.20;;;;;;;-145.14;100.00;70583.66;4994639;28;20231;-70
2022/02/23 05:15:57;;;;;;;18.50;4.23;;;;;;;-145.14;100.00;70583.66;4992865;28;20532;-71
2022/02/23 05:18:24;;;;;;;34.37;5.83;;;;;;;-145.14;100.00;70583.66;4995353;28;20442;-71
2022/02/23 05:20:49;;;;;;;19.00;4.80;;;;;;;-145.14;100.00;70583.66;5000018;28;20439;-71
2022/02/23 05:23:16;;;;;;;22.00;4.50;;;;;;;-145.14;100.00;70583.66;4996836;28;20506;-70
2022/02/23 05:25:42;;;;;;;22.93;5.57;;;;;;;-145.14;100.00;70583.66;4992183;28;20189;-71
2022/02/23 05:28:07;;;;;;;27.30;4.93;;;;;;;-145.14;100.00;70583.66;4995056;28;20467;-71
2022/02/23 05:30:36;;;;;;;22.73;4.80;;;;;;;-145.14;100.00;70583.66;4991455;28;20456;-71
2022/02/23 05:33:01;;;;;;;26.03;4.47;;;;;;;-145.14;100.00;70583.66;4990371;28;20204;-71
2022/02/23 05:35:27;;;;;;;27.33;4.83;;;;;;;-145.14;100.00;70583.66;5001058;28;20475;-71
2022/02/23 05:37:52;;;;;;;27.10;4.80;;;;;;;-145.14;100.00;70583.66;4994901;28;20193;-71
2022/02/23 05:40:18;;;;;;;23.33;5.20;;;;;;;-145.14;100.00;70583.66;4995961;28;20185;-71
2022/02/23 05:42:43;;;;;;;26.03;4.33;;;;;;;-145.14;100.00;70583.66;4991271;28;20307;-71
2022/02/23 05:45:09;;;;;;;28.70;4.90;;;;;;;-145.14;100.00;70583.66;4984946;28;20319;-70
2022/02/23 05:47:35;;;;;;;27.20;5.80;;;;;;;-145.14;100.00;70583.66;4993155;28;20193;-69
2022/02/23 05:50:01;;;;;;;22.93;4.60;;;;;;;-145.14;100.00;70583.66;4996805;28;20452;-70
2022/02/23 05:52:26;;;;;;;20.37;4.17;;;;;;;-145.14;100.00;70583.66;4985824;28;20447;-71
2022/02/23 05:54:52;;;;;;;23.70;5.33;;;;;;;-145.14;100.00;70583.66;4983606;28;20209;-70
2022/02/23 05:57:18;;;;;;;28.93;4.50;;;;;;;-145.14;100.00;70583.66;4983659;28;20200;-71
2022/02/23 05:59:44;;;;;;;20.57;4.40;;;;;;;-145.14;100.00;70583.66;4989615;28;20227;-70
2022/02/23 06:02:10;;;;;;;21.97;4.67;;;;;;;-145.14;100.00;70583.66;4993076;28;20861;-70
2022/02/23 06:04:36;;;;;;;24.83;4.80;;;;;;;-145.14;100.00;70583.66;4995289;28;20212;-71
2022/02/23 06:07:05;;;;;;;13.70;3.80;;;;;;;-145.14;100.00;70583.66;4990612;28;20181;-71
2022/02/23 06:09:32;;;;;;;23.60;4.30;;;;;;;-145.14;100.00;70583.66;4994907;28;21222;-71
2022/02/23 06:11:58;;;;;;;20.53;4.73;;;;;;;-145.14;100.00;70583.66;4986068;28;20824;-71
2022/02/23 06:14:24;;;;;;;29.03;3.90;;;;;;;-145.14;100.00;70583.66;4988355;28;20511;-71
2022/02/23 06:16:49;;;;;;;26.13;4.80;;;;;;;-145.14;100.00;70583.66;4985550;28;20444;-70
2022/02/23 06:19:15;;;;;;;25.00;4.93;;;;;;;-145.14;100.00;70583.66;4993133;28;20271;-71
2022/02/23 06:21:41;;;;;;;21.40;4.30;;;;;;;-145.14;100.00;70583.66;4988426;28;20178;-70
2022/02/23 06:24:07;;;;;;;21.47;4.10;;;;;;;-145.14;100.00;70583.66;4992973;23;20950;-70
2022/02/23 06:26:32;;;;;;;23.10;4.70;;;;;;;-145.14;100.00;70583.66;4989131;28;20196;-70
2022/02/23 06:28:57;;;;;;;18.77;4.70;;;;;;;-145.14;100.00;70583.66;4995865;28;20495;-71
2022/02/23 06:31:23;;;;;;;17.80;4.00;;;;;;;-145.14;100.00;70583.66;4990994;28;20181;-70
2022/02/23 06:33:49;;;;;;;25.07;4.50;;;;;;;-145.14;100.00;70583.66;4991544;28;20269;-70
2022/02/23 06:36:16;;;;;;;22.13;4.77;;;;;;;-145.14;100.00;70583.66;4992353;28;20188;-70
2022/02/23 06:38:43;;;;;;;23.40;5.40;;;;;;;-145.14;100.00;70583.66;4990323;28;20811;-71
2022/02/23 06:41:14;;;;;;;22.13;4.10;;;;;;;-145.14;100.00;70583.66;4990788;28;20700;-70
2022/02/23 06:43:42;;;;;;;24.37;4.73;;;;;;;-145.14;100.00;70583.66;4991685;28;20459;-71
2022/02/23 06:46:08;;;;;;;19.53;3.80;;;;;;;-145.14;100.00;70583.66;4987393;28;20450;-70
2022/02/23 06:48:34;;;;;;;26.13;5.20;;;;;;;-145.14;100.00;70583.66;4984018;28;20931;-71
2022/02/23 06:50:59;;;;;;;21.30;4.73;;;;;;;-145.14;100.00;70583.66;4993971;28;20531;-70
2022/02/23 06:53:25;;;;;;;17.10;3.80;;;;;;;-145.14;100.00;70583.66;4988684;28;20199;-70
2022/02/23 06:55:52;;;;;;;21.07;4.03;;;;;;;-145.14;100.00;70583.66;4995190;28;20646;-71
2022/02/23 06:58:18;;;;;;;20.03;3.70;;;;;;;-145.14;100.00;70583.66;4993753;28;20918;-71
2022/02/23 07:00:44;;;;;;;25.20;4.20;;;;;;;-145.14;100.00;70583.66;4988681;28;20940;-70
2022/02/23 07:03:10;;;;;;;19.57;3.93;;;;;;;-145.14;100.00;70583.66;4989400;28;20446;-70
2022/02/23 07:05:35;;;;;;;17.60;3.80;;;;;;;-145.14;100.00;70583.66;4993498;28;20211;-71
2022/02/23 07:08:04;;;;;;;25.80;4.40;;;;;;;-145.14;100.00;70583.66;4995626;28;20196;-70
2022/02/23 07:10:30;;;;;;;15.73;3.43;;;;;;;-145.14;100.00;70583.66;4987232;28;20240;-70
2022/02/23 07:12:59;;;;;;;21.27;3.43;;;;;;;-145.14;100.00;70583.66;4995827;28;20436;-71
2022/02/23 07:15:25;;;;;;;16.57;4.90;;;;;;;-145.14;100.00;70583.66;4991434;28;20513;-71
2022/02/23 07:17:51;;;;;;;21.70;5.20;;;;;;;-145.14;100.00;70583.66;4995922;28;20871;-70
2022/02/23 07:20:18;;;;;;;16.37;3.47;;;;;;;-145.14;100.00;70583.66;4995511;28;20486;-70
2022/02/23 07:22:43;;;;;;;23.20;3.20;;;;;;;-145.14;100.00;70583.66;4989032;28;23964;-71
2022/02/23 07:25:11;;;;;;;16.23;4.00;;;;;;;-145.14;100.00;70583.66;4980946;28;20525;-70
2022/02/23 07:27:37;;;;;;;17.03;3.40;;;;;;;-145.14;100.00;70583.66;4982217;28;20256;-70
2022/02/23 07:30:07;;;;;;;15.33;3.63;;;;;;;-145.14;100.00;70583.66;4983844;28;20459;-71
2022/02/23 07:32:33;;;;;;;14.67;3.40;;;;;;;-145.14;100.00;70583.66;4987243;28;20440;-70
2022/02/23 07:35:00;;;;;;;16.20;3.73;;;;;;;-145.14;100.00;70583.66;4991241;28;20463;-71
2022/02/23 07:37:25;;;;;;;17.70;4.20;;;;;;;-145.14;100.00;70583.66;4993231;28;20487;-70
2022/02/23 07:39:58;;;;;;;21.00;4.50;;;;;;;-145.14;100.00;70583.66;4983458;28;20665;-71
2022/02/23 07:42:24;;;;;;;18.10;3.73;;;;;;;-145.14;100.00;70583.66;4988826;28;20201;-70
2022/02/23 07:44:50;;;;;;;20.20;3.60;;;;;;;-145.14;100.00;70583.66;4994378;28;20570;-71
2022/02/23 07:47:15;;;;;;;16.67;3.50;;;;;;;-145.14;100.00;70583.66;4991589;28;20435;-71
2022/02/23 07:49:41;;;;;;;17.50;5.20;;;;;;;-145.14;100.00;70583.66;4988675;28;20435;-71
2022/02/23 07:52:07;;;;;;;17.43;3.50;;;;;;;-145.14;100.00;70583.66;4988060;28;20189;-71
2022/02/23 07:54:33;;;;;;;20.43;3.90;;;;;;;-145.14;100.00;70583.66;4989528;28;20464;-70
2022/02/23 07:56:58;;;;;;;22.30;3.73;;;;;;;-145.14;100.00;70583.66;4986073;28;20391;-70
2022/02/23 07:59:23;;;;;;;24.93;4.53;;;;;;;-145.14;100.00;70583.66;4993565;28;20264;-70
2022/02/23 08:01:50;;;;;;;18.57;3.50;;;;;;;-145.14;100.00;70583.66;4986666;28;20196;-71
2022/02/23 08:04:16;;;;;;;17.10;4.13;;;;;;;-145.14;100.00;70583.66;4988112;28;20201;-71
2022/02/23 08:06:42;;;;;;;21.43;3.43;;;;;;;-145.14;100.00;70583.66;4996359;28;20443;-71
2022/02/23 08:09:09;;;;;;;17.03;3.57;;;;;;;-145.14;100.00;70583.66;4995388;28;20201;-70
2022/02/23 08:11:37;;;;;;;21.47;4.00;;;;;;;-145.14;100.00;70583.66;4991107;28;21031;-70
2022/02/23 08:14:10;;;;;;;16.17;4.30;;;;;;;-145.14;100.00;70583.66;4988230;28;20460;-71
2022/02/23 08:19:32;;;;;;;15.23;4.50;;;;;;;-145.14;100.00;70583.66;4990143;28;20543;-70
2022/02/23 08:22:03;;;;;;;26.50;4.40;;;;;;;-145.14;100.00;70583.66;5000285;28;20515;-71
2022/02/23 08:24:29;;;;;;;18.80;4.13;;;;;;;-145.14;100.00;70583.66;4997444;28;20467;-70
2022/02/23 08:26:58;;;;;;;17.20;3.53;;;;;;;-145.14;100.00;70583.66;4992907;28;20558;-70
2022/02/23 08:29:24;;;;;;;21.30;3.57;;;;;;;-145.14;100.00;70583.66;4989958;28;20582;-70
2022/02/23 08:31:50;;;;;;;21.40;4.20;;;;;;;-145.14;100.00;70583.66;4993584;28;20500;-70
2022/02/23 08:34:17;;;;;;;13.40;4.27;;;;;;;-145.14;100.00;70583.66;4995980;23;20508;-72
2022/02/23 08:36:44;;;;;;;19.30;4.00;;;;;;;-145.14;100.00;70583.66;4992154;28;20510;-74
2022/02/23 08:39:09;;;;;;;15.60;4.13;;;;;;;-145.14;100.00;70583.66;4984472;28;20443;-72
2022/02/23 08:41:35;;;;;;;15.90;3.90;;;;;;;-145.14;100.00;70583.66;4990929;28;21003;-72
2022/02/23 08:44:02;;;;;;;19.30;3.97;;;;;;;-145.14;100.00;70583.66;4995131;28;20209;-74
2022/02/23 08:46:28;;;;;;;22.40;3.97;;;;;;;-145.14;100.00;70583.66;4994322;28;20498;-71
2022/02/23 08:48:54;;;;;;;16.67;4.87;;;;;;;-145.14;100.00;70583.66;4994355;28;20475;-71
2022/02/23 08:51:19;;;;;;;20.03;5.33;;;;;;;-145.14;100.00;70583.66;4988476;28;20205;-71
2022/02/23 08:53:45;;;;;;;20.13;4.00;;;;;;;-145.14;100.00;70583.66;4990111;28;20806;-71
2022/02/23 08:56:12;;;;;;;29.80;4.57;;;;;;;-145.14;100.00;70583.66;4999102;28;20215;-73
2022/02/23 08:58:38;;;;;;;15.50;3.60;;;;;;;-145.14;100.00;70583.66;4991240;28;20779;-72
2022/02/23 09:01:03;;;;;;;16.30;3.20;;;;;;;-145.14;100.00;70583.66;4990127;28;20439;-75
2022/02/23 09:03:29;;;;;;;17.93;3.33;;;;;;;-145.14;100.00;70583.66;4997649;28;20685;-73
2022/02/23 09:05:54;;;;;;;13.63;4.37;;;;;;;-145.14;100.00;70583.66;5001386;28;20216;-72
2022/02/23 09:08:20;;;;;;;11.83;3.50;;;;;;;-145.14;100.00;70583.66;4993205;28;22601;-73
2022/02/23 09:10:49;;;;;;;15.20;3.50;;;;;;;-145.14;100.00;70583.66;4993424;28;20231;-71
2022/02/23 09:13:17;;;;;;;14.73;3.97;;;;;;;-145.14;100.00;70583.66;4995017;28;20223;-71
2022/02/23 09:15:43;;;;;;;14.87;3.83;;;;;;;-145.14;100.00;70583.66;4994793;28;20478;-73
2022/02/23 09:18:09;;;;;;;14.10;2.63;;;;;;;-145.14;100.00;70583.66;4993205;28;20447;-72
2022/02/23 09:20:37;;;;;;;11.13;3.43;;;;;;;-145.14;100.00;70583.66;4993260;28;20279;-74
2022/02/23 09:23:03;;;;;;;15.97;3.10;;;;;;;-145.14;100.00;70583.66;4991327;28;20319;-72
2022/02/23 09:25:32;;;;;;;19.87;3.50;;;;;;;-145.14;100.00;70583.66;4991644;28;20472;-73
2022/02/23 09:27:57;;;;;;;15.67;4.00;;;;;;;-145.14;100.00;70583.66;4992930;28;22160;-72
2022/02/23 09:30:23;;;;;;;9.60;3.00;;;;;;;-145.14;100.00;70583.66;4988009;28;20577;-72
2022/02/23 09:32:49;;;;;;;16.83;3.27;;;;;;;-145.14;100.00;70583.66;4988656;28;20189;-74
2022/02/23 09:35:18;;;;;;;12.43;3.43;;;;;;;-145.14;100.00;70583.66;4990324;28;20597;-72
2022/02/23 09:37:44;;;;;;;15.27;3.57;;;;;;;-145.14;100.00;70583.66;4991071;28;20443;-71
2022/02/23 09:40:18;;;;;;;14.60;3.97;;;;;;;-145.14;100.00;70583.66;4990848;28;20945;-71
2022/02/23 09:42:45;;;;;;;13.20;2.90;;;;;;;-145.14;100.00;70583.66;4984611;28;20180;-71
2022/02/23 09:45:12;;;;;;;14.23;3.00;;;;;;;-145.14;100.00;70583.66;4988124;28;20834;-71
2022/02/23 09:47:40;;;;;;;13.80;2.93;;;;;;;-145.14;100.00;70583.66;4987971;28;20448;-71
2022/02/23 09:50:11;;;;;;;11.27;3.63;;;;;;;-145.14;100.00;70583.66;4990842;28;20446;-72
2022/02/23 09:52:36;;;;;;;7.77;2.40;;;;;;;-145.14;100.00;70583.66;4988967;28;20447;-73
2022/02/23 09:55:04;;;;;;;11.33;2.80;;;;;;;-145.14;100.00;70583.66;4990099;28;20478;-71
2022/02/23 09:57:30;;;;;;;10.93;2.40;;;;;;;-145.14;100.00;70583.66;4988806;28;20335;-70
2022/02/23 09:59:57;;;;;;;19.90;2.73;;;;;;;-145.14;100.00;70583.66;4990914;28;20476;-72
2022/02/23 10:02:23;;;;;;;13.43;2.60;;;;;;;-145.14;100.00;70583.66;4988954;28;21165;-75
2022/02/23 10:04:50;;;;;;;10.90;2.90;;;;;;;-145.14;100.00;70583.66;4988848;28;21439;-74
2022/02/23 10:07:25;;;;;;;14.20;3.23;;;;;;;-145.14;100.00;70583.66;4988419;28;20523;-73
2022/02/23 10:09:54;;;;;;;11.83;2.73;;;;;;;-145.14;100.00;70583.66;4989543;28;20534;-71
2022/02/23 10:12:26;;;;;;;14.97;2.93;;;;;;;-145.14;100.00;70583.66;4998610;28;20448;-73
2022/02/23 10:15:16;;;;;;;18.77;3.53;;;;;;;-145.14;100.00;70583.66;4985878;28;21886;-75
2022/02/23 10:17:47;;;;;;;12.70;3.23;;;;;;;-145.14;100.00;70583.66;4987319;28;21050;-71
2022/02/23 10:20:34;;;;;;;20.43;3.47;;;;;;;-145.14;100.00;70583.66;4984153;28;21143;-72
2022/02/23 10:23:07;;;;;;;17.07;3.43;;;;;;;-145.14;100.00;70583.66;4991107;28;20436;-73
2022/02/23 10:25:36;;;;;;;15.77;3.50;;;;;;;-145.14;100.00;70583.66;4990339;28;20551;-73
2022/02/23 10:28:08;;;;;;;15.13;3.87;;;;;;;-145.14;100.00;70583.66;4992673;28;20467;-71
2022/02/23 10:30:35;;;;;;;21.73;3.70;;;;;;;-145.14;100.00;70583.66;4989189;28;20479;-74
2022/02/23 10:33:28;;;;;;;17.30;4.50;;;;;;;-145.14;100.00;70583.66;4995340;28;20466;-72
2022/02/23 10:35:58;;;;;;;13.80;3.47;;;;;;;-145.14;100.00;70583.66;4998754;28;20602;-73
2022/02/23 10:38:27;;;;;;;18.20;3.27;;;;;;;-145.14;100.00;70583.66;4990722;28;20479;-72
2022/02/23 10:40:54;;;;;;;13.80;2.80;;;;;;;-145.14;100.00;70583.66;4989809;28;20522;-73
2022/02/23 10:43:21;;;;;;;11.63;3.10;;;;;;;-145.14;100.00;70583.66;4989433;28;20439;-73
2022/02/23 10:45:51;;;;;;;15.67;3.70;;;;;;;-145.14;100.00;70583.66;4986568;28;20471;-73
2022/02/23 10:48:37;;;;;;;11.27;3.43;;;;;;;-145.14;100.00;70583.66;4992428;28;21035;-71
2022/02/23 10:51:07;;;;;;;19.80;4.70;;;;;;;-145.14;100.00;70583.66;4996095;28;20442;-74
2022/02/23 10:53:33;;;;;;;14.60;4.40;;;;;;;-145.14;100.00;70583.66;4998350;28;20443;-74
2022/02/23 10:55:59;;;;;;;13.47;3.30;;;;;;;-145.14;100.00;70583.66;4998240;28;20463;-72
2022/02/23 10:58:26;;;;;;;17.10;4.03;;;;;;;-145.14;100.00;70583.66;4990325;28;20463;-73
2022/02/23 11:01:02;;;;;;;14.00;3.27;;;;;;;-145.14;100.00;70583.66;4998932;28;20439;-74